Buena Vista, Indiana
Current Conditions -  °F | °C
As of 3:55 PM on Sunday 21 Dec 2014 (Local Time) from KI67 Reporting Station
Clear Clear  
Wind Chill: 34°   Ceiling: Unl
Heat Index: 37°   Visibility: 10mi
Dew Point: 27°   Wind: 5mph
Humidity: 65%   Direction: 130°SE
Pressure: 30.18"   Gusts: NA
Location:  39.4846°N, 85.1967°W
Report Text: KI67 212055Z AUTO 13004KT 10SM CLR 03/M03 A3018 RMK AO1
Loading
Personal Weather Stations






























Interactive Weather Map New forecast layout! Learn more

10-Day Weather Forecast

Advertisements
Track Severe Weather on mobile